Canefield Airport

Fair
28oC (82oF)

Fair


Winds: North north westerly @ 05kts / 09km/h

Humidity: 60%

Barometric Pressure: 1011 mb

Accumulated Rainfall for December: 3.8 mm

Updated: 15:00 local time (19:00 UTC)

Douglas-Charles Airport

Fair
29oC (84oF)

Fair


Winds: North north westerly @ 03kts / 06km/h

Humidity: 65%

Barometric Pressure: 1013 mb

Accumulated Rainfall for December: 2.1 mm

Updated: 15:00 local time (19:00 UTC)

Satellite Imagery

Satellite Imagery
Click image for larger view. (Source: National Hurricane Center).

Aviation Routine Report (METAR)

Douglas-Charles: METAR TDPD 071900Z 33003KT 9999 FEW022 29/21 Q1013=
Canefield: METAR TDCF 071900Z 33005KT 9999 FEW022 28/20 Q1011=